createdAt,value
2019-02-24T00:01:48.787Z,59.65
2019-02-24T00:04:17.408Z,60.08
2019-02-24T00:06:46.044Z,60.42
2019-02-24T00:09:14.684Z,59.67
2019-02-24T00:11:43.290Z,60.47
2019-02-24T00:14:11.907Z,60.09
2019-02-24T00:16:40.569Z,59.73
2019-02-24T00:19:09.376Z,59.38
2019-02-24T00:21:39.627Z,59.54
2019-02-24T00:24:08.287Z,59.23
2019-02-24T00:26:37.033Z,58.71
2019-02-24T00:29:05.600Z,59.13
2019-02-24T00:31:34.166Z,58.65
2019-02-24T00:34:02.729Z,58.58
2019-02-24T00:36:31.426Z,58.60
2019-02-24T00:39:00.012Z,58.31
2019-02-24T00:41:28.664Z,58.80
2019-02-24T00:43:57.295Z,58.85
2019-02-24T00:46:25.879Z,58.43
2019-02-24T00:48:54.471Z,58.32
2019-02-24T00:51:23.220Z,58.01
2019-02-24T00:53:51.842Z,57.98
2019-02-24T00:56:20.538Z,58.10
2019-02-24T00:58:49.013Z,58.16
2019-02-24T01:01:17.654Z,58.20
2019-02-24T01:03:46.317Z,58.12
2019-02-24T01:06:15.024Z,58.00
2019-02-24T01:08:43.782Z,58.12
2019-02-24T01:11:12.322Z,58.36
2019-02-24T01:13:40.909Z,58.63
2019-02-24T01:16:09.550Z,58.94
2019-02-24T01:18:39.150Z,59.15
2019-02-24T01:21:07.788Z,59.28
2019-02-24T01:23:38.937Z,59.05
2019-02-24T01:26:07.679Z,59.10
2019-02-24T01:28:36.204Z,59.47
2019-02-24T01:31:04.844Z,59.12
2019-02-24T01:33:33.447Z,59.05
2019-02-24T01:36:01.941Z,59.41
2019-02-24T01:38:30.506Z,59.56
2019-02-24T01:40:59.138Z,59.22
2019-02-24T01:43:27.653Z,59.13
2019-02-24T01:45:56.218Z,59.31
2019-02-24T01:48:27.805Z,58.94
2019-02-24T01:50:56.286Z,59.69
2019-02-24T01:53:24.926Z,60.07
2019-02-24T01:55:53.588Z,60.00
2019-02-24T01:58:22.303Z,60.13
2019-02-24T02:00:50.948Z,60.97
2019-02-24T02:03:19.555Z,60.93
2019-02-24T02:05:48.193Z,61.01
2019-02-24T02:08:16.830Z,60.89
2019-02-24T02:10:45.493Z,61.02
2019-02-24T02:13:13.982Z,60.67
2019-02-24T02:15:42.628Z,61.39
2019-02-24T02:18:11.216Z,61.72
2019-02-24T02:20:39.864Z,61.89
2019-02-24T02:23:08.466Z,62.02
2019-02-24T02:25:37.136Z,62.03
2019-02-24T02:28:05.759Z,61.98
2019-02-24T02:30:34.510Z,62.57
2019-02-24T02:33:03.195Z,62.55
2019-02-24T02:35:31.789Z,62.41
2019-02-24T02:38:00.376Z,62.28
2019-02-24T02:40:30.540Z,62.23
2019-02-24T02:42:59.103Z,62.26
2019-02-24T02:45:27.666Z,62.39
2019-02-24T02:47:56.263Z,62.34
2019-02-24T02:50:26.727Z,62.14
2019-02-24T02:52:55.332Z,62.32
2019-02-24T02:55:23.823Z,62.23
2019-02-24T02:57:52.564Z,62.14
2019-02-24T03:00:27.255Z,62.41
2019-02-24T03:02:55.923Z,62.35
2019-02-24T03:05:24.556Z,62.63
2019-02-24T03:08:03.801Z,62.60
2019-02-24T03:10:32.351Z,62.67
2019-02-24T03:13:00.843Z,62.71
2019-02-24T03:15:29.455Z,63.17
2019-02-24T03:17:58.009Z,64.02
2019-02-24T03:20:26.638Z,65.00
2019-02-24T03:22:55.204Z,64.99
2019-02-24T03:25:23.900Z,65.31
2019-02-24T03:27:52.598Z,65.27
2019-02-24T03:30:21.316Z,64.96
2019-02-24T03:32:49.948Z,65.26
2019-02-24T03:35:18.503Z,65.39
2019-02-24T03:37:47.105Z,65.82
2019-02-24T03:40:15.723Z,66.02
2019-02-24T03:42:44.410Z,65.69
2019-02-24T03:45:13.086Z,65.56
2019-02-24T03:47:41.785Z,65.54
2019-02-24T03:50:10.432Z,65.71
2019-02-24T03:52:39.094Z,66.10
2019-02-24T03:55:08.022Z,65.88
2019-02-24T03:57:36.647Z,66.12
2019-02-24T04:00:06.613Z,66.25
2019-02-24T04:02:35.197Z,66.38
2019-02-24T04:05:04.034Z,66.61
2019-02-24T04:07:32.772Z,66.29
2019-02-24T04:10:01.501Z,66.62
2019-02-24T04:12:30.053Z,66.42
2019-02-24T04:14:58.727Z,66.47
2019-02-24T04:17:27.365Z,66.64
2019-02-24T04:19:56.008Z,66.63
2019-02-24T04:22:24.619Z,66.76
2019-02-24T04:24:53.138Z,67.01
2019-02-24T04:27:21.736Z,66.87
2019-02-24T04:29:50.410Z,66.87
2019-02-24T04:32:18.991Z,66.95
2019-02-24T04:34:47.470Z,67.08
2019-02-24T04:37:16.020Z,67.36
2019-02-24T04:39:44.510Z,67.06
2019-02-24T04:42:13.090Z,67.22
2019-02-24T04:44:41.715Z,67.09
2019-02-24T04:47:10.292Z,67.03
2019-02-24T04:49:38.980Z,67.07
2019-02-24T04:52:07.580Z,67.24
2019-02-24T04:54:36.153Z,67.11
2019-02-24T04:57:04.708Z,67.33
2019-02-24T04:59:35.266Z,67.33
2019-02-24T05:02:03.737Z,67.51
2019-02-24T05:04:32.223Z,67.17
2019-02-24T05:07:00.858Z,67.37
2019-02-24T05:09:29.424Z,67.53
2019-02-24T05:11:58.227Z,67.66
2019-02-24T05:14:26.903Z,67.58
2019-02-24T05:16:55.485Z,67.51
2019-02-24T05:19:24.052Z,67.60
2019-02-24T05:21:52.654Z,67.73
2019-02-24T05:24:21.224Z,68.24
2019-02-24T05:26:49.869Z,68.08
2019-02-24T05:29:20.349Z,68.32
2019-02-24T05:31:48.747Z,68.11
2019-02-24T05:34:17.431Z,68.34
2019-02-24T05:36:46.093Z,68.32
2019-02-24T05:39:14.597Z,68.32
2019-02-24T05:41:43.184Z,68.37
2019-02-24T05:44:11.885Z,68.20
2019-02-24T05:46:40.522Z,68.14
2019-02-24T05:49:09.086Z,68.41
2019-02-24T05:51:37.687Z,68.27
2019-02-24T05:54:06.832Z,68.14
2019-02-24T05:56:35.333Z,68.25
2019-02-24T05:59:03.932Z,68.35
2019-02-24T06:01:32.569Z,67.63
2019-02-24T06:04:01.158Z,67.91
2019-02-24T06:06:29.715Z,67.60
2019-02-24T06:08:58.406Z,67.67
2019-02-24T06:11:26.938Z,67.39
2019-02-24T06:13:55.579Z,67.08
2019-02-24T06:16:24.075Z,67.15
2019-02-24T06:18:52.652Z,67.18
2019-02-24T06:21:21.263Z,67.00
2019-02-24T06:23:49.790Z,66.73
2019-02-24T06:26:18.362Z,66.57
2019-02-24T06:28:47.056Z,66.90
2019-02-24T06:31:15.637Z,66.47
2019-02-24T06:33:47.493Z,66.28
2019-02-24T06:36:16.119Z,65.68
2019-02-24T06:38:44.749Z,65.55
2019-02-24T06:41:13.315Z,65.54
2019-02-24T06:43:41.974Z,65.20
2019-02-24T06:46:10.540Z,65.12
2019-02-24T06:48:39.183Z,64.97
2019-02-24T06:51:09.526Z,64.33
2019-02-24T06:53:38.118Z,64.48
2019-02-24T06:56:06.685Z,63.75
2019-02-24T06:58:35.388Z,63.07
2019-02-24T07:01:04.030Z,62.50
2019-02-24T07:03:32.661Z,62.34
2019-02-24T07:06:01.270Z,61.84
2019-02-24T07:08:29.928Z,61.38
2019-02-24T07:10:58.644Z,61.07
2019-02-24T07:13:27.302Z,60.38
2019-02-24T07:15:55.795Z,60.02
2019-02-24T07:18:24.424Z,59.69
2019-02-24T07:20:52.957Z,59.43
2019-02-24T07:23:21.531Z,59.28
2019-02-24T07:25:50.157Z,59.39
2019-02-24T07:28:18.753Z,59.21
2019-02-24T07:30:47.319Z,58.11
2019-02-24T07:33:15.931Z,58.37
2019-02-24T07:35:44.654Z,57.52
2019-02-24T07:38:15.918Z,57.91
2019-02-24T07:40:44.491Z,57.03
2019-02-24T07:43:13.134Z,58.39
2019-02-24T07:45:41.851Z,57.75
2019-02-24T07:48:12.011Z,57.44
2019-02-24T07:50:40.677Z,56.61
2019-02-24T07:53:09.306Z,56.27
2019-02-24T07:55:37.816Z,55.69
2019-02-24T07:58:06.417Z,54.67
2019-02-24T08:00:35.051Z,55.26
2019-02-24T08:03:03.674Z,54.27
2019-02-24T08:05:32.438Z,54.08
2019-02-24T08:08:02.499Z,54.65
2019-02-24T08:10:31.229Z,54.24
2019-02-24T08:12:59.841Z,54.18
2019-02-24T08:15:28.577Z,53.98
2019-02-24T08:17:57.211Z,54.39
2019-02-24T08:20:27.249Z,54.05
2019-02-24T08:22:55.749Z,53.40
2019-02-24T08:25:24.448Z,52.86
2019-02-24T08:27:55.457Z,52.83
2019-02-24T08:30:25.970Z,53.42
2019-02-24T08:32:54.533Z,52.94
2019-02-24T08:35:23.400Z,53.03
2019-02-24T08:37:52.058Z,52.35
2019-02-24T08:40:20.687Z,52.35
2019-02-24T08:42:49.290Z,51.92
2019-02-24T08:45:17.935Z,49.97
2019-02-24T08:47:46.488Z,49.97
2019-02-24T08:50:15.175Z,49.60
2019-02-24T08:52:43.728Z,50.12
2019-02-24T08:55:12.298Z,50.12
2019-02-24T08:57:40.931Z,50.17
2019-02-24T09:00:12.624Z,50.43
2019-02-24T09:02:41.393Z,51.14
2019-02-24T09:05:10.016Z,51.02
2019-02-24T09:07:38.662Z,52.07
2019-02-24T09:10:09.497Z,51.55
2019-02-24T09:12:38.168Z,51.26
2019-02-24T09:15:12.262Z,50.81
2019-02-24T09:17:42.517Z,50.81
2019-02-24T09:20:12.551Z,50.64
2019-02-24T09:22:41.183Z,51.74
2019-02-24T09:25:09.764Z,51.74
2019-02-24T09:27:38.417Z,51.78
2019-02-24T09:30:09.959Z,49.88
2019-02-24T09:32:38.618Z,49.54
2019-02-24T09:35:08.594Z,48.71
2019-02-24T09:37:37.226Z,48.71
2019-02-24T09:40:11.020Z,48.65
2019-02-24T09:42:39.709Z,47.48
2019-02-24T09:45:10.621Z,45.77
2019-02-24T09:47:46.400Z,44.85
2019-02-24T09:50:10.769Z,43.61
2019-02-24T09:52:39.412Z,42.28
2019-02-24T09:55:09.251Z,42.76
2019-02-24T09:57:39.050Z,43.06
2019-02-24T10:00:15.906Z,42.87
2019-02-24T10:02:44.588Z,43.42
2019-02-24T10:05:13.214Z,44.13
2019-02-24T10:07:43.331Z,44.07
2019-02-24T10:10:13.782Z,44.07
2019-02-24T10:12:42.988Z,42.30
2019-02-24T10:15:14.171Z,41.41
2019-02-24T10:17:46.602Z,41.20
2019-02-24T10:20:15.329Z,41.15
2019-02-24T10:22:44.265Z,44.02
2019-02-24T10:25:13.211Z,44.68
2019-02-24T10:27:41.911Z,44.29
2019-02-24T10:30:17.253Z,44.33
2019-02-24T10:32:45.927Z,46.08
2019-02-24T10:35:14.644Z,46.07
2019-02-24T10:37:43.281Z,45.19
2019-02-24T10:40:18.143Z,45.35
2019-02-24T10:42:46.860Z,45.21
2019-02-24T10:45:17.086Z,45.54
2019-02-24T10:47:49.313Z,45.42
2019-02-24T10:50:18.543Z,45.84
2019-02-24T10:52:47.184Z,45.37
2019-02-24T10:55:15.849Z,45.20
2019-02-24T10:57:44.865Z,45.86
2019-02-24T11:00:15.712Z,44.97
2019-02-24T11:02:44.394Z,43.08
2019-02-24T11:05:14.036Z,43.08
2019-02-24T11:07:42.769Z,43.90
2019-02-24T11:10:12.464Z,45.11
2019-02-24T11:12:41.085Z,43.94
2019-02-24T11:15:11.512Z,43.43
2019-02-24T11:17:40.253Z,43.29
2019-02-24T11:20:12.087Z,43.29
2019-02-24T11:22:42.173Z,43.15
2019-02-24T11:25:11.745Z,42.72
2019-02-24T11:27:40.380Z,43.12
2019-02-24T11:30:11.611Z,43.06
2019-02-24T11:32:40.304Z,42.15
2019-02-24T11:35:13.120Z,41.75
2019-02-24T11:37:41.811Z,41.57
2019-02-24T11:40:13.149Z,41.08
2019-02-24T11:42:41.784Z,41.64
2019-02-24T11:45:11.017Z,41.49
2019-02-24T11:47:39.755Z,40.85
2019-02-24T11:50:12.531Z,40.70
2019-02-24T11:52:41.159Z,40.62
2019-02-24T11:55:11.124Z,41.27
2019-02-24T11:57:40.068Z,41.55
2019-02-24T12:00:14.829Z,41.50
2019-02-24T12:02:43.501Z,40.64
2019-02-24T12:05:12.231Z,40.54
2019-02-24T12:07:40.789Z,40.44
2019-02-24T12:10:11.983Z,40.60
2019-02-24T12:12:40.609Z,40.76
2019-02-24T12:15:11.878Z,41.11
2019-02-24T12:17:40.481Z,40.90
2019-02-24T12:20:10.916Z,40.17
2019-02-24T12:22:41.443Z,41.52
2019-02-24T12:25:11.237Z,40.61
2019-02-24T12:27:39.865Z,41.49
2019-02-24T12:30:13.003Z,42.59
2019-02-24T12:32:42.562Z,42.54
2019-02-24T12:35:12.852Z,42.10
2019-02-24T12:37:41.422Z,41.59
2019-02-24T12:40:14.644Z,42.06
2019-02-24T12:42:43.494Z,41.39
2019-02-24T12:45:12.621Z,41.38
2019-02-24T12:47:41.305Z,42.14
2019-02-24T12:50:12.259Z,42.91
2019-02-24T12:52:40.910Z,42.76
2019-02-24T12:55:10.881Z,43.08
2019-02-24T12:57:40.304Z,42.74
2019-02-24T13:00:17.539Z,42.42
2019-02-24T13:02:46.113Z,42.47
2019-02-24T13:05:14.807Z,41.34
2019-02-24T13:07:44.574Z,41.08
2019-02-24T13:10:16.177Z,40.45
2019-02-24T13:12:44.804Z,40.03
2019-02-24T13:15:13.680Z,39.44
2019-02-24T13:17:43.956Z,39.24
2019-02-24T13:20:13.269Z,38.52
2019-02-24T13:22:41.923Z,38.19
2019-02-24T13:25:12.065Z,37.68
2019-02-24T13:27:40.688Z,37.68
2019-02-24T13:30:12.275Z,37.61
2019-02-24T13:32:40.908Z,37.61
2019-02-24T13:35:09.840Z,37.35
2019-02-24T13:37:38.502Z,37.35
2019-02-24T13:40:12.407Z,37.64
2019-02-24T13:42:41.047Z,38.20
2019-02-24T13:45:15.474Z,38.41
2019-02-24T13:47:44.991Z,38.41
2019-02-24T13:50:14.720Z,38.28
2019-02-24T13:52:43.458Z,37.79
2019-02-24T13:55:13.898Z,37.32
2019-02-24T13:57:42.941Z,37.32
2019-02-24T14:00:14.528Z,36.69
2019-02-24T14:02:43.080Z,36.31
2019-02-24T14:05:11.712Z,35.94
2019-02-24T14:07:40.394Z,34.93
2019-02-24T14:10:12.001Z,35.54
2019-02-24T14:12:40.621Z,35.98
2019-02-24T14:15:11.682Z,35.26
2019-02-24T14:17:40.326Z,35.26
2019-02-24T14:20:14.065Z,33.63
2019-02-24T14:22:43.297Z,33.15
2019-02-24T14:25:13.306Z,32.98
2019-02-24T14:27:41.922Z,32.47
2019-02-24T14:30:17.910Z,32.43
2019-02-24T14:32:46.601Z,32.18
2019-02-24T14:35:17.714Z,32.24
2019-02-24T14:37:46.419Z,32.39
2019-02-24T14:40:15.043Z,31.15
2019-02-24T14:42:43.666Z,30.31
2019-02-24T14:45:20.438Z,29.90
2019-02-24T14:47:49.070Z,29.74
2019-02-24T14:50:17.715Z,30.33
2019-02-24T14:52:46.386Z,29.94
2019-02-24T14:55:16.181Z,30.24
2019-02-24T14:57:44.805Z,30.39
2019-02-24T15:00:21.204Z,30.27
2019-02-24T15:02:49.857Z,29.73
2019-02-24T15:05:18.540Z,29.34
2019-02-24T15:07:47.165Z,29.66
2019-02-24T15:10:21.011Z,30.09
2019-02-24T15:12:49.705Z,29.09
2019-02-24T15:15:21.239Z,29.55
2019-02-24T15:17:49.873Z,29.02
2019-02-24T15:20:20.192Z,29.05
2019-02-24T15:22:48.817Z,29.26
2019-02-24T15:25:18.923Z,29.15
2019-02-24T15:27:48.453Z,28.91
2019-02-24T15:30:32.226Z,29.62
2019-02-24T15:33:03.625Z,30.00
2019-02-24T15:35:32.435Z,29.81
2019-02-24T15:38:02.310Z,29.09
2019-02-24T15:40:30.941Z,28.54
2019-02-24T15:42:59.603Z,28.94
2019-02-24T15:45:28.317Z,29.38
2019-02-24T15:47:56.945Z,29.13
2019-02-24T15:50:25.646Z,29.27
2019-02-24T15:52:54.383Z,29.91
2019-02-24T15:55:23.223Z,30.47
2019-02-24T15:57:51.949Z,30.99
2019-02-24T16:00:22.443Z,31.37
2019-02-24T16:02:51.132Z,33.27
2019-02-24T16:05:19.759Z,34.73
2019-02-24T16:07:48.428Z,35.79
2019-02-24T16:10:24.460Z,36.98
2019-02-24T16:12:53.211Z,37.98
2019-02-24T16:15:28.058Z,38.64
2019-02-24T16:17:56.715Z,39.44
2019-02-24T16:20:36.208Z,39.92
2019-02-24T16:23:04.945Z,40.70
2019-02-24T16:25:35.032Z,41.11
2019-02-24T16:28:03.826Z,42.33
2019-02-24T16:30:32.530Z,42.75
2019-02-24T16:33:09.982Z,42.35
2019-02-24T16:35:31.570Z,44.04
2019-02-24T16:38:00.205Z,44.04
2019-02-24T16:40:29.360Z,45.55
2019-02-24T16:42:58.115Z,44.87
2019-02-24T16:45:26.723Z,45.02
2019-02-24T16:47:55.312Z,44.78
2019-02-24T16:50:25.009Z,43.98
2019-02-24T16:52:53.641Z,44.12
2019-02-24T16:55:22.273Z,44.69
2019-02-24T16:57:50.953Z,44.69
2019-02-24T17:00:21.453Z,45.00
2019-02-24T17:02:50.169Z,45.00
2019-02-24T17:05:18.839Z,45.46
2019-02-24T17:07:49.396Z,44.64
2019-02-24T17:10:20.668Z,44.64
2019-02-24T17:12:49.446Z,44.78
2019-02-24T17:15:18.143Z,44.81
2019-02-24T17:17:47.293Z,45.07
2019-02-24T17:20:19.238Z,45.07
2019-02-24T17:22:49.629Z,45.26
2019-02-24T17:25:18.574Z,45.91
2019-02-24T17:27:47.338Z,46.02
2019-02-24T17:30:17.043Z,46.77
2019-02-24T17:32:46.225Z,46.77
2019-02-24T17:35:15.503Z,46.83
2019-02-24T17:37:45.592Z,46.77
2019-02-24T17:40:19.405Z,46.78
2019-02-24T17:42:47.955Z,46.99
2019-02-24T17:45:16.653Z,46.99
2019-02-24T17:47:45.292Z,47.42
2019-02-24T17:50:15.142Z,47.42
2019-02-24T17:52:43.861Z,47.37
2019-02-24T17:55:14.469Z,47.50
2019-02-24T17:57:43.204Z,47.76
2019-02-24T18:00:34.193Z,47.97
2019-02-24T18:03:03.027Z,47.92
2019-02-24T18:05:31.598Z,47.88
2019-02-24T18:08:01.700Z,48.21
2019-02-24T18:10:30.449Z,48.22
2019-02-24T18:12:59.098Z,48.06
2019-02-24T18:15:27.990Z,48.27
2019-02-24T18:17:56.671Z,47.92
2019-02-24T18:20:25.617Z,47.94
2019-02-24T18:22:54.254Z,47.92
2019-02-24T18:25:23.304Z,47.74
2019-02-24T18:27:52.001Z,47.74
2019-02-24T18:30:24.867Z,47.58
2019-02-24T18:32:53.603Z,47.58
2019-02-24T18:35:22.251Z,47.59
2019-02-24T18:37:51.207Z,47.70
2019-02-24T18:40:19.895Z,47.63
2019-02-24T18:42:48.461Z,47.73
2019-02-24T18:45:17.368Z,48.06
2019-02-24T18:47:46.025Z,47.82
2019-02-24T18:50:19.483Z,47.90
2019-02-24T18:52:48.979Z,47.97
2019-02-24T18:55:17.726Z,47.89
2019-02-24T18:57:46.417Z,48.02
2019-02-24T19:00:21.484Z,48.23
2019-02-24T19:02:50.260Z,48.22
2019-02-24T19:05:19.001Z,48.19
2019-02-24T19:07:47.714Z,48.41
2019-02-24T19:10:21.528Z,48.47
2019-02-24T19:12:50.627Z,48.39
2019-02-24T19:15:21.506Z,48.44
2019-02-24T19:17:50.165Z,48.38
2019-02-24T19:20:20.320Z,48.32
2019-02-24T19:22:49.028Z,48.25
2019-02-24T19:25:18.093Z,48.30
2019-02-24T19:27:46.894Z,48.38
2019-02-24T19:30:18.483Z,48.37
2019-02-24T19:32:47.232Z,48.44
2019-02-24T19:35:17.057Z,48.34
2019-02-24T19:37:45.733Z,48.33
2019-02-24T19:40:21.949Z,48.09
2019-02-24T19:42:52.051Z,48.21
2019-02-24T19:45:23.609Z,48.49
2019-02-24T19:47:52.494Z,48.29
2019-02-24T19:50:22.162Z,48.11
2019-02-24T19:52:52.309Z,48.38
2019-02-24T19:55:20.961Z,48.34
2019-02-24T19:57:50.484Z,48.49
2019-02-24T20:00:25.804Z,48.38
2019-02-24T20:02:55.929Z,48.19
2019-02-24T20:05:24.664Z,47.96
2019-02-24T20:07:53.570Z,48.06
2019-02-24T20:10:29.942Z,48.19
2019-02-24T20:12:58.659Z,48.00
2019-02-24T20:15:27.363Z,47.55
2019-02-24T20:17:56.119Z,47.64
2019-02-24T20:20:24.773Z,47.76
2019-02-24T20:22:53.753Z,47.73
2019-02-24T20:25:23.620Z,47.71
2019-02-24T20:27:52.248Z,47.71
2019-02-24T20:30:28.494Z,47.90
2019-02-24T20:32:57.189Z,48.07
2019-02-24T20:35:25.783Z,48.34
2019-02-24T20:37:54.458Z,48.53
2019-02-24T20:40:23.203Z,48.65
2019-02-24T20:42:52.112Z,48.68
2019-02-24T20:45:22.092Z,48.82
2019-02-24T20:47:50.739Z,49.11
2019-02-24T20:50:21.854Z,49.31
2019-02-24T20:52:50.517Z,49.22
2019-02-24T20:55:19.201Z,48.99
2019-02-24T20:57:47.881Z,49.19
2019-02-24T21:00:28.974Z,49.56
2019-02-24T21:02:57.531Z,49.48
2019-02-24T21:05:26.325Z,49.71
2019-02-24T21:07:55.152Z,49.16
2019-02-24T21:10:24.104Z,48.77
2019-02-24T21:12:53.180Z,48.72
2019-02-24T21:15:21.924Z,48.57
2019-02-24T21:17:50.674Z,48.67
2019-02-24T21:20:27.988Z,48.31
2019-02-24T21:22:56.726Z,48.21
2019-02-24T21:25:25.993Z,48.08
2019-02-24T21:27:54.857Z,48.05
2019-02-24T21:30:25.265Z,47.79
2019-02-24T21:32:53.994Z,47.75
2019-02-24T21:35:22.770Z,47.84
2019-02-24T21:37:51.354Z,47.73
2019-02-24T21:40:20.894Z,48.07
2019-02-24T21:42:49.728Z,48.11
2019-02-24T21:45:23.498Z,47.82
2019-02-24T21:47:52.208Z,47.59
2019-02-24T21:50:20.912Z,47.57
2019-02-24T21:52:49.783Z,47.80
2019-02-24T21:55:18.690Z,48.02
2019-02-24T21:57:47.865Z,48.02
2019-02-24T22:00:26.901Z,48.40
2019-02-24T22:02:55.591Z,48.84
2019-02-24T22:05:24.597Z,49.02
2019-02-24T22:07:53.248Z,49.64
2019-02-24T22:10:23.580Z,49.64
2019-02-24T22:12:52.181Z,49.51
2019-02-24T22:15:25.306Z,49.39
2019-02-24T22:17:54.042Z,49.64
2019-02-24T22:20:24.165Z,49.84
2019-02-24T22:22:52.926Z,50.05
2019-02-24T22:25:22.059Z,50.32
2019-02-24T22:27:50.703Z,50.59
2019-02-24T22:30:21.044Z,50.64
2019-02-24T22:32:49.894Z,50.82
2019-02-24T22:35:19.781Z,50.76
2019-02-24T22:37:48.431Z,50.83
2019-02-24T22:40:17.668Z,50.89
2019-02-24T22:42:46.710Z,50.90
2019-02-24T22:45:21.899Z,51.10
2019-02-24T22:47:50.573Z,51.37
2019-02-24T22:50:19.234Z,51.72
2019-02-24T22:52:48.070Z,51.88
2019-02-24T22:55:17.964Z,52.08
2019-02-24T22:57:46.800Z,52.55
2019-02-24T23:00:24.561Z,52.82
2019-02-24T23:02:53.306Z,52.99
2019-02-24T23:05:21.944Z,52.99
2019-02-24T23:07:50.638Z,53.25
2019-02-24T23:10:19.279Z,53.43
2019-02-24T23:12:47.898Z,53.48
2019-02-24T23:15:16.669Z,53.64
2019-02-24T23:17:45.417Z,53.68
2019-02-24T23:20:14.115Z,53.92
2019-02-24T23:22:42.826Z,54.04
2019-02-24T23:25:11.465Z,53.96
2019-02-24T23:27:40.101Z,53.91
2019-02-24T23:30:10.258Z,54.00
2019-02-24T23:32:38.912Z,53.92
2019-02-24T23:35:07.958Z,53.75
2019-02-24T23:37:38.223Z,53.89
2019-02-24T23:40:08.852Z,53.95
2019-02-24T23:42:37.486Z,53.91
2019-02-24T23:45:11.073Z,53.96
2019-02-24T23:47:40.287Z,53.91
2019-02-24T23:50:12.759Z,53.87
2019-02-24T23:52:41.514Z,53.89
2019-02-24T23:55:10.956Z,53.81
2019-02-24T23:57:39.625Z,53.85
